Time;durP1;ratioP1;P1;durP2;ratioP2;P2;SDS_P1;SDS_P2;PMS_P1;PMS_P2;Temp;Humidity;BMP_temperature;BMP_pressure;BME280_temperature;BME280_humidity;BME280_pressure;Samples;Min_cycle;Max_cycle;Signal;HPM_P1;HPM_P2
2022/06/07 00:01:18;;;;;;;;;;;23.00;55.70;;;;;;5046982;28;19917;-70
2022/06/07 00:03:44;;;;;;;;;;;23.10;55.80;;;;;;5025378;28;19913;-66
2022/06/07 00:06:10;;;;;;;;;;;23.10;55.80;;;;;;5024929;28;19920;-69
2022/06/07 00:08:35;;;;;;;;;;;23.00;55.80;;;;;;5038137;28;19923;-68
2022/06/07 00:11:00;;;;;;;;;;;23.00;55.80;;;;;;5046175;28;19913;-68
2022/06/07 00:13:26;;;;;;;;;;;23.00;55.90;;;;;;5045720;28;19941;-68
2022/06/07 00:15:51;;;;;;;;;;;23.00;55.90;;;;;;5028158;28;19987;-69
2022/06/07 00:18:17;;;;;;;;;;;23.00;55.90;;;;;;5028369;28;19975;-68
2022/06/07 00:20:42;;;;;;;;;;;23.00;56.00;;;;;;5046564;28;20309;-69
2022/06/07 00:23:09;;;;;;;;;;;23.00;55.90;;;;;;5025430;28;19971;-69
2022/06/07 00:25:35;;;;;;;;;;;23.00;56.00;;;;;;5025310;28;19920;-69
2022/06/07 00:28:00;;;;;;;;;;;23.00;56.00;;;;;;5014971;28;20008;-69
2022/06/07 00:30:26;;;;;;;;;;;23.00;56.00;;;;;;5044321;28;20308;-69
2022/06/07 00:32:51;;;;;;;;;;;23.00;56.00;;;;;;5027105;28;19956;-69
2022/06/07 00:35:17;;;;;;;;;;;23.00;56.00;;;;;;5027836;28;19921;-69
2022/06/07 00:37:42;;;;;;;;;;;23.00;56.00;;;;;;5025584;28;19924;-69
2022/06/07 00:40:08;;;;;;;;;;;23.00;56.10;;;;;;5026394;28;20268;-69
2022/06/07 00:42:34;;;;;;;;;;;23.00;56.10;;;;;;5024415;28;19913;-68
2022/06/07 00:44:59;;;;;;;;;;;23.00;56.10;;;;;;5010605;28;20003;-68
2022/06/07 00:47:25;;;;;;;;;;;23.00;56.10;;;;;;5011501;28;20004;-69
2022/06/07 00:49:55;;;;;;;;;;;23.00;56.10;;;;;;5011283;28;20000;-69
2022/06/07 00:52:21;;;;;;;;;;;23.00;56.10;;;;;;5044543;28;19923;-69
2022/06/07 00:54:46;;;;;;;;;;;23.00;56.20;;;;;;5024445;28;19917;-69
2022/06/07 00:57:12;;;;;;;;;;;23.00;56.20;;;;;;5024877;28;20470;-69
2022/06/07 00:59:37;;;;;;;;;;;23.00;56.20;;;;;;5024568;28;19966;-68
2022/06/07 01:02:03;;;;;;;;;;;22.90;56.10;;;;;;5045688;28;19912;-69
2022/06/07 01:04:29;;;;;;;;;;;22.90;56.10;;;;;;5033151;28;20005;-69
2022/06/07 01:12:22;;;;;;;;;;;22.90;56.20;;;;;;5044013;28;19927;-69
2022/06/07 01:14:48;;;;;;;;;;;22.90;56.20;;;;;;5040452;28;20496;-69
2022/06/07 01:17:13;;;;;;;;;;;22.90;56.20;;;;;;5025100;28;19917;-69
2022/06/07 01:19:39;;;;;;;;;;;22.90;56.20;;;;;;5037615;28;19975;-68
2022/06/07 01:22:04;;;;;;;;;;;22.90;56.20;;;;;;5045463;28;20553;-69
2022/06/07 01:24:30;;;;;;;;;;;23.00;56.30;;;;;;5036420;28;19913;-69
2022/06/07 01:26:55;;;;;;;;;;;22.90;56.20;;;;;;5027973;28;19988;-69
2022/06/07 01:29:21;;;;;;;;;;;22.90;56.30;;;;;;5036555;28;19924;-67
2022/06/07 01:31:47;;;;;;;;;;;22.90;56.30;;;;;;5023695;28;20053;-69
2022/06/07 01:34:12;;;;;;;;;;;22.90;56.30;;;;;;5027092;28;19920;-69
2022/06/07 01:36:38;;;;;;;;;;;22.90;56.30;;;;;;5028051;28;19917;-69
2022/06/07 01:41:56;;;;;;;;;;;22.90;56.30;;;;;;5043509;28;19940;-69
2022/06/07 01:44:40;;;;;;;;;;;22.90;56.30;;;;;;5044427;28;20015;-68
2022/06/07 01:47:07;;;;;;;;;;;22.90;56.30;;;;;;5043325;28;20618;-69
2022/06/07 01:49:33;;;;;;;;;;;22.90;56.30;;;;;;5009873;28;19916;-69
2022/06/07 01:51:59;;;;;;;;;;;22.90;56.30;;;;;;5044823;28;19920;-69
2022/06/07 01:54:24;;;;;;;;;;;22.80;56.30;;;;;;5038549;28;19914;-69
2022/06/07 01:56:50;;;;;;;;;;;22.90;56.30;;;;;;5006634;28;19924;-69
2022/06/07 01:59:16;;;;;;;;;;;22.90;56.40;;;;;;5027152;28;20347;-69
2022/06/07 02:01:41;;;;;;;;;;;22.90;56.40;;;;;;5042874;28;20322;-67
2022/06/07 02:04:08;;;;;;;;;;;22.80;56.40;;;;;;5044391;28;19916;-69
2022/06/07 02:06:33;;;;;;;;;;;22.90;56.40;;;;;;5026639;28;20308;-70
2022/06/07 02:08:59;;;;;;;;;;;22.90;56.50;;;;;;5025292;28;20031;-69
2022/06/07 02:11:25;;;;;;;;;;;22.80;56.40;;;;;;5022689;28;19920;-69
2022/06/07 02:13:52;;;;;;;;;;;22.80;56.40;;;;;;5022569;28;19917;-69
2022/06/07 02:16:17;;;;;;;;;;;22.80;56.40;;;;;;5041769;28;19917;-69
2022/06/07 02:18:42;;;;;;;;;;;22.80;56.40;;;;;;5009743;28;19920;-69
2022/06/07 02:21:08;;;;;;;;;;;22.80;56.50;;;;;;5026244;28;19920;-69
2022/06/07 02:23:34;;;;;;;;;;;22.80;56.50;;;;;;5026000;28;20604;-69
2022/06/07 02:26:01;;;;;;;;;;;22.80;56.40;;;;;;5038391;28;19923;-69
2022/06/07 02:28:27;;;;;;;;;;;22.80;56.40;;;;;;5021888;28;19913;-68
2022/06/07 02:30:52;;;;;;;;;;;22.80;56.40;;;;;;5035420;28;19924;-68
2022/06/07 02:33:18;;;;;;;;;;;22.80;56.40;;;;;;5042193;28;19912;-67
2022/06/07 02:35:43;;;;;;;;;;;22.80;56.40;;;;;;5043757;28;19913;-69
2022/06/07 02:38:09;;;;;;;;;;;22.80;56.50;;;;;;5025723;28;19974;-69
2022/06/07 02:40:34;;;;;;;;;;;22.80;56.50;;;;;;5025754;28;20323;-69
2022/06/07 02:43:00;;;;;;;;;;;22.80;56.50;;;;;;5042403;28;19913;-69
2022/06/07 02:45:26;;;;;;;;;;;22.80;56.50;;;;;;5039179;28;19913;-69
2022/06/07 02:47:51;;;;;;;;;;;22.70;56.40;;;;;;5021478;28;19917;-69
2022/06/07 02:50:17;;;;;;;;;;;22.80;56.50;;;;;;5028561;28;19921;-69
2022/06/07 02:52:42;;;;;;;;;;;22.70;56.50;;;;;;5025190;28;20469;-69
2022/06/07 02:55:08;;;;;;;;;;;22.70;56.50;;;;;;5042162;28;19917;-69
2022/06/07 02:57:33;;;;;;;;;;;22.80;56.50;;;;;;5024950;28;19978;-69
2022/06/07 02:59:59;;;;;;;;;;;22.70;56.50;;;;;;5041923;28;19934;-69
2022/06/07 03:02:24;;;;;;;;;;;22.80;56.50;;;;;;5021952;28;20324;-69
2022/06/07 03:04:49;;;;;;;;;;;22.70;56.40;;;;;;5005394;28;19913;-69
2022/06/07 03:07:15;;;;;;;;;;;22.80;56.50;;;;;;5024912;28;19970;-69
2022/06/07 03:09:40;;;;;;;;;;;22.70;56.50;;;;;;5043422;28;20467;-69
2022/06/07 03:12:06;;;;;;;;;;;22.70;56.50;;;;;;5026008;28;19971;-69
2022/06/07 03:14:31;;;;;;;;;;;22.70;56.50;;;;;;5023733;28;19952;-69
2022/06/07 03:16:57;;;;;;;;;;;22.70;56.50;;;;;;5039470;28;19928;-70
2022/06/07 03:19:22;;;;;;;;;;;22.70;56.50;;;;;;5025159;28;20269;-69
2022/06/07 03:21:48;;;;;;;;;;;22.70;56.50;;;;;;5025893;28;20007;-69
2022/06/07 03:24:13;;;;;;;;;;;22.70;56.50;;;;;;5041218;28;19920;-68
2022/06/07 03:26:39;;;;;;;;;;;22.70;56.60;;;;;;5026500;28;20514;-69
2022/06/07 03:29:04;;;;;;;;;;;22.70;56.60;;;;;;5005483;28;20114;-69
2022/06/07 03:31:30;;;;;;;;;;;22.70;56.60;;;;;;5014077;28;19913;-67
2022/06/07 03:33:55;;;;;;;;;;;22.70;56.60;;;;;;5014451;28;20442;-69
2022/06/07 03:36:23;;;;;;;;;;;22.60;56.50;;;;;;4997174;28;19913;-69
2022/06/07 03:38:48;;;;;;;;;;;22.70;56.60;;;;;;5041807;28;20134;-69
2022/06/07 03:41:18;;;;;;;;;;;22.60;56.60;;;;;;5039237;28;19920;-69
2022/06/07 03:43:43;;;;;;;;;;;22.70;56.60;;;;;;5022389;28;19936;-68
2022/06/07 03:46:13;;;;;;;;;;;22.70;56.60;;;;;;5012225;28;20114;-69
2022/06/07 03:48:39;;;;;;;;;;;22.70;56.60;;;;;;5043487;28;19912;-68
2022/06/07 03:51:06;;;;;;;;;;;22.60;56.60;;;;;;5047126;28;19913;-69
2022/06/07 03:53:32;;;;;;;;;;;22.70;56.60;;;;;;5027086;28;19913;-70
2022/06/07 03:55:57;;;;;;;;;;;22.70;56.60;;;;;;5041793;28;20303;-69
2022/06/07 03:58:23;;;;;;;;;;;22.60;56.60;;;;;;5021560;28;20368;-69
2022/06/07 04:00:48;;;;;;;;;;;22.60;56.60;;;;;;5021522;28;20018;-69
2022/06/07 04:03:14;;;;;;;;;;;22.60;56.60;;;;;;5042732;28;19921;-69
2022/06/07 04:05:43;;;;;;;;;;;22.60;56.60;;;;;;5034915;28;19918;-69
2022/06/07 04:08:11;;;;;;;;;;;22.60;56.70;;;;;;5023018;28;20011;-69
2022/06/07 04:10:46;;;;;;;;;;;22.60;56.70;;;;;;5025439;28;20008;-69
2022/06/07 04:13:12;;;;;;;;;;;22.60;56.70;;;;;;5023172;28;20400;-69
2022/06/07 04:15:37;;;;;;;;;;;22.60;56.70;;;;;;4988610;28;19913;-69
2022/06/07 04:18:03;;;;;;;;;;;22.60;56.70;;;;;;5038953;28;19916;-69
2022/06/07 04:20:28;;;;;;;;;;;22.60;56.70;;;;;;5042392;28;20559;-69
2022/06/07 04:22:54;;;;;;;;;;;22.60;56.60;;;;;;5029388;28;19952;-69
2022/06/07 04:25:19;;;;;;;;;;;22.60;56.60;;;;;;5041577;28;19919;-69
2022/06/07 04:27:45;;;;;;;;;;;22.60;56.70;;;;;;5024889;28;19913;-69
2022/06/07 04:30:10;;;;;;;;;;;22.60;56.70;;;;;;5040815;28;20291;-69
2022/06/07 04:32:36;;;;;;;;;;;22.60;56.70;;;;;;5020667;28;20000;-69
2022/06/07 04:35:01;;;;;;;;;;;22.60;56.80;;;;;;5020266;28;20303;-69
2022/06/07 04:37:27;;;;;;;;;;;22.60;56.80;;;;;;5029906;28;19916;-69
2022/06/07 04:39:52;;;;;;;;;;;22.60;56.70;;;;;;5040980;28;19917;-69
2022/06/07 04:42:18;;;;;;;;;;;22.60;56.70;;;;;;5037376;28;19920;-70
2022/06/07 04:44:43;;;;;;;;;;;22.60;56.80;;;;;;5043098;28;19916;-69
2022/06/07 04:47:09;;;;;;;;;;;22.60;56.70;;;;;;5040878;28;19919;-71
2022/06/07 04:49:35;;;;;;;;;;;22.60;56.70;;;;;;5024583;28;19963;-70
2022/06/07 04:52:00;;;;;;;;;;;22.60;56.70;;;;;;5028029;28;20007;-69
2022/06/07 04:54:26;;;;;;;;;;;22.60;57.00;;;;;;5027968;28;19920;-71
2022/06/07 04:56:53;;;;;;;;;;;22.60;57.10;;;;;;5026862;28;19916;-71
2022/06/07 04:59:18;;;;;;;;;;;22.70;56.90;;;;;;5023980;28;19940;-69
2022/06/07 05:01:44;;;;;;;;;;;22.60;57.00;;;;;;5024714;28;20763;-69
2022/06/07 05:04:09;;;;;;;;;;;22.60;57.10;;;;;;5010476;28;19919;-69
2022/06/07 05:06:39;;;;;;;;;;;22.60;57.00;;;;;;5026415;28;19913;-70
2022/06/07 05:09:15;;;;;;;;;;;22.60;57.10;;;;;;5027411;28;19943;-70
2022/06/07 05:11:40;;;;;;;;;;;22.60;57.00;;;;;;5008252;28;19929;-70
2022/06/07 05:14:06;;;;;;;;;;;22.60;57.10;;;;;;5011597;28;19920;-70
2022/06/07 05:16:31;;;;;;;;;;;22.60;57.10;;;;;;5045499;28;19912;-70
2022/06/07 05:18:57;;;;;;;;;;;22.60;57.10;;;;;;5011253;28;19921;-71
2022/06/07 05:21:23;;;;;;;;;;;22.60;57.00;;;;;;5044417;28;19916;-71
2022/06/07 05:23:48;;;;;;;;;;;22.60;57.00;;;;;;5045552;28;20500;-69
2022/06/07 05:26:19;;;;;;;;;;;22.60;57.10;;;;;;5028061;28;20021;-69
2022/06/07 05:28:45;;;;;;;;;;;22.60;57.10;;;;;;5041162;28;19916;-70
2022/06/07 05:31:10;;;;;;;;;;;22.60;57.00;;;;;;5024628;28;20392;-71
2022/06/07 05:33:36;;;;;;;;;;;22.60;57.10;;;;;;5035986;28;19921;-68
2022/06/07 05:36:02;;;;;;;;;;;22.60;57.20;;;;;;5027757;28;20329;-70
2022/06/07 05:38:28;;;;;;;;;;;22.60;57.20;;;;;;5027271;28;19917;-69
2022/06/07 05:40:53;;;;;;;;;;;22.60;57.30;;;;;;5044323;28;20228;-69
2022/06/07 05:43:18;;;;;;;;;;;22.60;57.20;;;;;;5045030;28;19913;-70
2022/06/07 05:45:48;;;;;;;;;;;22.60;57.20;;;;;;5027681;28;19913;-69
2022/06/07 05:48:13;;;;;;;;;;;22.60;57.20;;;;;;5039795;28;19961;-69
2022/06/07 05:50:38;;;;;;;;;;;22.60;57.10;;;;;;5025674;28;20178;-70
2022/06/07 05:53:04;;;;;;;;;;;22.60;57.20;;;;;;5027183;28;19919;-68
2022/06/07 05:55:29;;;;;;;;;;;22.60;57.20;;;;;;5020770;28;20315;-68
2022/06/07 05:57:55;;;;;;;;;;;22.60;57.20;;;;;;5008549;28;19914;-68
2022/06/07 06:00:20;;;;;;;;;;;22.60;57.20;;;;;;5044400;28;19913;-69
2022/06/07 06:02:46;;;;;;;;;;;22.60;57.20;;;;;;5044314;28;20543;-68
2022/06/07 06:05:11;;;;;;;;;;;22.50;57.20;;;;;;5045034;28;19917;-68
2022/06/07 06:10:19;;;;;;;;;;;22.60;57.20;;;;;;5010812;28;19913;-68
2022/06/07 06:10:23;;;;;;;;;;;22.60;57.20;;;;;;5010157;28;19923;-71
2022/06/07 06:12:48;;;;;;;;;;;22.60;57.20;;;;;;5023876;28;20307;-69
2022/06/07 06:15:14;;;;;;;;;;;22.50;57.00;;;;;;5024381;28;19913;-69
2022/06/07 06:17:40;;;;;;;;;;;22.50;57.00;;;;;;5041008;28;19921;-68
2022/06/07 06:20:05;;;;;;;;;;;22.60;57.10;;;;;;5044600;28;19913;-71
2022/06/07 06:22:31;;;;;;;;;;;22.60;57.10;;;;;;5044193;28;19917;-68
2022/06/07 06:24:56;;;;;;;;;;;22.50;57.10;;;;;;5039990;28;19913;-68
2022/06/07 06:27:22;;;;;;;;;;;22.50;57.00;;;;;;5024982;28;19920;-68
2022/06/07 06:29:47;;;;;;;;;;;22.50;57.20;;;;;;5019404;28;20390;-68
2022/06/07 06:32:12;;;;;;;;;;;22.60;57.20;;;;;;5044954;28;19913;-67
2022/06/07 06:34:38;;;;;;;;;;;22.50;57.20;;;;;;5026197;28;19966;-69
2022/06/07 06:37:03;;;;;;;;;;;22.50;57.20;;;;;;5027033;28;19913;-68
2022/06/07 06:39:29;;;;;;;;;;;22.50;57.20;;;;;;5035410;28;20483;-69
2022/06/07 06:41:54;;;;;;;;;;;22.50;57.80;;;;;;5024121;28;19920;-69
2022/06/07 06:44:20;;;;;;;;;;;22.50;57.10;;;;;;5026149;28;19913;-69
2022/06/07 06:46:46;;;;;;;;;;;22.50;57.20;;;;;;5026659;28;20557;-69
2022/06/07 06:49:13;;;;;;;;;;;22.50;57.80;;;;;;5026239;28;19927;-69
2022/06/07 06:51:38;;;;;;;;;;;22.50;57.20;;;;;;5042841;28;19978;-69
2022/06/07 06:54:04;;;;;;;;;;;22.50;57.20;;;;;;5025779;28;19975;-69
2022/06/07 06:56:29;;;;;;;;;;;22.50;57.20;;;;;;5026015;28;19999;-69
2022/06/07 06:58:55;;;;;;;;;;;22.50;57.20;;;;;;5024537;28;19913;-69
2022/06/07 07:01:26;;;;;;;;;;;22.50;57.20;;;;;;5022677;28;19964;-69
2022/06/07 07:03:51;;;;;;;;;;;22.50;57.30;;;;;;5022272;28;19957;-69
2022/06/07 07:06:17;;;;;;;;;;;22.50;57.20;;;;;;5043920;28;20005;-70
2022/06/07 07:08:43;;;;;;;;;;;22.50;57.20;;;;;;5025335;28;20311;-69
2022/06/07 07:11:08;;;;;;;;;;;22.50;57.20;;;;;;5026298;28;19917;-69
2022/06/07 07:13:34;;;;;;;;;;;22.50;57.20;;;;;;5043353;28;19916;-69
2022/06/07 07:15:59;;;;;;;;;;;22.50;57.30;;;;;;5022203;28;19924;-69
2022/06/07 07:18:25;;;;;;;;;;;22.50;57.20;;;;;;5022211;28;19913;-69
2022/06/07 07:20:51;;;;;;;;;;;22.40;57.20;;;;;;5020246;28;19916;-69
2022/06/07 07:23:16;;;;;;;;;;;22.50;57.30;;;;;;5043672;28;20275;-68
2022/06/07 07:25:42;;;;;;;;;;;22.50;57.40;;;;;;5012742;28;19936;-70
2022/06/07 07:28:07;;;;;;;;;;;22.40;57.30;;;;;;5023399;28;20667;-70
2022/06/07 07:30:33;;;;;;;;;;;22.50;57.40;;;;;;5023250;28;20401;-70
2022/06/07 07:32:58;;;;;;;;;;;22.50;57.40;;;;;;5023505;28;19967;-69
2022/06/07 07:35:24;;;;;;;;;;;22.50;57.40;;;;;;5014151;28;19913;-69
2022/06/07 07:37:49;;;;;;;;;;;22.50;57.40;;;;;;5026310;28;20294;-69
2022/06/07 07:40:15;;;;;;;;;;;22.40;57.30;;;;;;5036791;28;19992;-69
2022/06/07 07:42:41;;;;;;;;;;;22.50;57.40;;;;;;5021915;28;20441;-70
2022/06/07 07:45:07;;;;;;;;;;;22.50;57.40;;;;;;5027298;28;19992;-69
2022/06/07 07:47:32;;;;;;;;;;;22.50;57.40;;;;;;5042770;28;20000;-70
2022/06/07 07:49:58;;;;;;;;;;;22.50;57.40;;;;;;5015228;28;19917;-70
2022/06/07 07:52:24;;;;;;;;;;;22.40;57.40;;;;;;5005403;28;20287;-70
2022/06/07 07:54:49;;;;;;;;;;;22.50;57.40;;;;;;5023696;28;20367;-69
2022/06/07 07:57:15;;;;;;;;;;;22.50;57.50;;;;;;5043206;28;19912;-70
2022/06/07 07:59:40;;;;;;;;;;;22.50;57.40;;;;;;5008186;28;19916;-70
2022/06/07 08:02:06;;;;;;;;;;;22.40;57.40;;;;;;5023996;28;19920;-70
2022/06/07 08:04:31;;;;;;;;;;;22.40;57.40;;;;;;5021575;28;19914;-70
2022/06/07 08:06:57;;;;;;;;;;;22.50;57.40;;;;;;5025048;28;19924;-70
2022/06/07 08:09:26;;;;;;;;;;;22.50;57.60;;;;;;5042779;28;19917;-70
2022/06/07 08:11:52;;;;;;;;;;;22.50;57.60;;;;;;5026946;28;19917;-70
2022/06/07 08:14:18;;;;;;;;;;;22.40;57.40;;;;;;5023498;28;19943;-68
2022/06/07 08:16:43;;;;;;;;;;;22.50;57.40;;;;;;5025315;28;19913;-70
2022/06/07 08:19:09;;;;;;;;;;;22.50;57.60;;;;;;5043276;28;19920;-70
2022/06/07 08:21:34;;;;;;;;;;;22.50;57.50;;;;;;5012282;28;19913;-69
2022/06/07 08:24:00;;;;;;;;;;;22.50;57.60;;;;;;5029169;28;19920;-70
2022/06/07 08:26:26;;;;;;;;;;;22.40;57.40;;;;;;5028879;28;19936;-70
2022/06/07 08:28:51;;;;;;;;;;;22.50;57.50;;;;;;5047031;28;20371;-70
2022/06/07 08:31:18;;;;;;;;;;;22.40;57.50;;;;;;5030344;28;19924;-70
2022/06/07 08:39:12;;;;;;;;;;;22.50;57.50;;;;;;5041037;28;19939;-69
2022/06/07 08:41:39;;;;;;;;;;;22.50;57.60;;;;;;5033057;28;19921;-69
2022/06/07 08:44:08;;;;;;;;;;;22.50;57.50;;;;;;5028359;28;19971;-70
2022/06/07 08:46:34;;;;;;;;;;;22.50;57.40;;;;;;5041385;28;20342;-70
2022/06/07 08:49:00;;;;;;;;;;;22.50;58.00;;;;;;5024762;28;19917;-69
2022/06/07 08:51:26;;;;;;;;;;;22.40;57.40;;;;;;5031473;28;20379;-70
2022/06/07 08:53:52;;;;;;;;;;;22.40;57.60;;;;;;5044393;28;19924;-70
2022/06/07 08:56:21;;;;;;;;;;;22.40;57.40;;;;;;5026388;28;19920;-70
2022/06/07 08:58:49;;;;;;;;;;;22.40;57.40;;;;;;5028433;28;19913;-70
2022/06/07 09:01:14;;;;;;;;;;;22.40;57.30;;;;;;5028411;28;19924;-69
2022/06/07 09:03:46;;;;;;;;;;;22.50;57.20;;;;;;5044457;28;19913;-68
2022/06/07 09:06:30;;;;;;;;;;;22.40;57.30;;;;;;5027469;28;19927;-69
2022/06/07 09:08:57;;;;;;;;;;;22.50;57.30;;;;;;5045635;28;19920;-70
2022/06/07 09:14:33;;;;;;;;;;;22.40;57.20;;;;;;5045231;28;19992;-70
2022/06/07 09:17:00;;;;;;;;;;;22.50;57.40;;;;;;5040928;28;19947;-69
2022/06/07 09:19:26;;;;;;;;;;;22.50;57.00;;;;;;5024904;28;19913;-68
2022/06/07 09:21:53;;;;;;;;;;;22.50;56.90;;;;;;5032110;28;19920;-71
2022/06/07 09:24:34;;;;;;;;;;;22.40;57.20;;;;;;5044370;28;20007;-68
2022/06/07 09:27:18;;;;;;;;;;;22.30;57.70;;;;;;5023082;28;19955;-70
2022/06/07 09:29:52;;;;;;;;;;;22.40;57.30;;;;;;5030150;28;19975;-70
2022/06/07 09:32:18;;;;;;;;;;;22.30;56.90;;;;;;5007117;28;19913;-70
2022/06/07 09:34:50;;;;;;;;;;;22.30;57.10;;;;;;5008139;28;21090;-70
2022/06/07 09:37:16;;;;;;;;;;;22.30;56.90;;;;;;5017776;28;20762;-72
2022/06/07 09:39:43;;;;;;;;;;;22.40;57.00;;;;;;5027561;28;19916;-70
2022/06/07 09:42:19;;;;;;;;;;;22.40;56.50;;;;;;5027487;28;19994;-70
2022/06/07 09:44:54;;;;;;;;;;;22.40;56.80;;;;;;5043651;28;19920;-71
2022/06/07 09:47:19;;;;;;;;;;;22.40;56.80;;;;;;5040166;28;20012;-70
2022/06/07 09:49:45;;;;;;;;;;;22.40;56.80;;;;;;5024937;28;20012;-70
2022/06/07 09:52:12;;;;;;;;;;;22.40;57.00;;;;;;5028526;28;19924;-69
2022/06/07 09:54:38;;;;;;;;;;;22.40;57.00;;;;;;5043932;28;19917;-69
2022/06/07 09:57:07;;;;;;;;;;;22.40;56.90;;;;;;5043823;28;19912;-70
2022/06/07 09:59:49;;;;;;;;;;;22.40;56.90;;;;;;5010750;28;19913;-69
2022/06/07 10:02:33;;;;;;;;;;;22.40;57.00;;;;;;5026952;28;19913;-70
2022/06/07 10:05:04;;;;;;;;;;;22.40;57.00;;;;;;5044952;28;19912;-71
2022/06/07 10:07:35;;;;;;;;;;;22.50;56.90;;;;;;5040616;28;20595;-70
2022/06/07 10:10:09;;;;;;;;;;;22.40;56.80;;;;;;5023825;28;19917;-70
2022/06/07 10:12:39;;;;;;;;;;;22.30;56.40;;;;;;5027616;28;20470;-69
2022/06/07 10:15:19;;;;;;;;;;;22.30;56.90;;;;;;5042900;28;19917;-69
2022/06/07 10:18:07;;;;;;;;;;;22.30;57.00;;;;;;5040682;28;19917;-70
2022/06/07 10:20:45;;;;;;;;;;;22.30;56.90;;;;;;5030911;28;19912;-70
2022/06/07 10:23:21;;;;;;;;;;;22.40;56.80;;;;;;5032002;28;19917;-70
2022/06/07 10:25:52;;;;;;;;;;;22.40;56.50;;;;;;5043147;28;20047;-70
2022/06/07 10:28:20;;;;;;;;;;;22.40;54.80;;;;;;5039787;28;20596;-70
2022/06/07 10:30:49;;;;;;;;;;;22.30;56.80;;;;;;5024190;28;20028;-70
2022/06/07 10:33:22;;;;;;;;;;;22.30;56.10;;;;;;5014266;28;19990;-70
2022/06/07 10:36:07;;;;;;;;;;;22.30;56.50;;;;;;5042965;28;20535;-69
2022/06/07 10:38:33;;;;;;;;;;;22.30;56.20;;;;;;5037777;28;19991;-70
2022/06/07 10:41:11;;;;;;;;;;;22.40;56.50;;;;;;5026064;28;19955;-69
2022/06/07 10:43:56;;;;;;;;;;;22.40;56.30;;;;;;5024764;28;19923;-70
2022/06/07 10:46:21;;;;;;;;;;;22.40;56.30;;;;;;5042903;28;19943;-70
2022/06/07 10:49:04;;;;;;;;;;;22.40;56.40;;;;;;5039065;28;25652;-69
2022/06/07 10:54:21;;;;;;;;;;;22.40;56.40;;;;;;5036034;28;19982;-70
2022/06/07 10:56:49;;;;;;;;;;;22.40;56.10;;;;;;5043308;28;19987;-70
2022/06/07 10:59:18;;;;;;;;;;;22.40;56.80;;;;;;5032536;28;19912;-69
2022/06/07 11:01:51;;;;;;;;;;;22.40;56.10;;;;;;5043339;28;20007;-70
2022/06/07 11:10:12;;;;;;;;;;;22.40;56.30;;;;;;5036751;28;19947;-70
2022/06/07 11:12:45;;;;;;;;;;;22.30;56.10;;;;;;5005927;28;19921;-70
2022/06/07 11:15:19;;;;;;;;;;;22.30;56.10;;;;;;5040348;28;19997;-69
2022/06/07 11:17:55;;;;;;;;;;;22.30;56.60;;;;;;5043523;28;19920;-70
2022/06/07 11:20:22;;;;;;;;;;;22.30;56.60;;;;;;5026379;28;19913;-69
2022/06/07 11:22:53;;;;;;;;;;;22.30;56.60;;;;;;5025611;28;19920;-70
2022/06/07 11:25:20;;;;;;;;;;;22.30;56.10;;;;;;5040144;28;20387;-70
2022/06/07 11:27:52;;;;;;;;;;;22.30;56.80;;;;;;5042247;28;19955;-69
2022/06/07 11:30:23;;;;;;;;;;;22.30;56.80;;;;;;5038888;28;21342;-70
2022/06/07 11:32:48;;;;;;;;;;;22.30;56.80;;;;;;5005672;28;19921;-69
2022/06/07 11:35:32;;;;;;;;;;;22.30;56.80;;;;;;5039319;28;19920;-70
2022/06/07 11:37:58;;;;;;;;;;;22.30;56.80;;;;;;5042016;28;19936;-70
2022/06/07 11:40:27;;;;;;;;;;;22.30;56.80;;;;;;5024997;28;20406;-70
2022/06/07 11:42:52;;;;;;;;;;;22.30;56.80;;;;;;5025375;28;20003;-69
2022/06/07 11:45:19;;;;;;;;;;;22.30;56.90;;;;;;5025134;28;20301;-69
2022/06/07 11:47:45;;;;;;;;;;;22.30;56.80;;;;;;5025866;28;19912;-70
2022/06/07 11:50:12;;;;;;;;;;;22.30;56.90;;;;;;5043245;28;19916;-70
2022/06/07 11:52:51;;;;;;;;;;;22.30;56.80;;;;;;5025456;28;19924;-69
2022/06/07 11:55:17;;;;;;;;;;;22.20;56.80;;;;;;5021070;28;19914;-70
2022/06/07 11:57:58;;;;;;;;;;;22.30;57.00;;;;;;5022042;28;20008;-70
2022/06/07 12:00:37;;;;;;;;;;;22.30;57.00;;;;;;5036101;28;19920;-70
2022/06/07 12:03:11;;;;;;;;;;;22.30;57.40;;;;;;5041396;28;19913;-70
2022/06/07 12:05:37;;;;;;;;;;;22.30;56.80;;;;;;5042390;28;19943;-70
2022/06/07 12:08:37;;;;;;;;;;;22.30;56.80;;;;;;5024890;28;20043;-70
2022/06/07 12:11:20;;;;;;;;;;;22.30;56.60;;;;;;4988206;28;19924;-70
2022/06/07 12:14:06;;;;;;;;;;;22.30;56.60;;;;;;5041352;28;19975;-70
2022/06/07 12:16:33;;;;;;;;;;;22.30;56.80;;;;;;5021806;28;19917;-70
2022/06/07 12:18:58;;;;;;;;;;;22.30;56.80;;;;;;5022249;28;20453;-71
2022/06/07 12:21:24;;;;;;;;;;;22.20;57.00;;;;;;5041544;28;21583;-70
2022/06/07 12:23:51;;;;;;;;;;;22.20;56.60;;;;;;5024706;28;19916;-70
2022/06/07 12:26:16;;;;;;;;;;;22.10;56.40;;;;;;5024378;28;19956;-70
2022/06/07 12:28:48;;;;;;;;;;;22.10;56.90;;;;;;5024904;28;20462;-69
2022/06/07 12:31:14;;;;;;;;;;;22.20;56.10;;;;;;5024802;28;19925;-66
2022/06/07 12:33:39;;;;;;;;;;;22.20;56.80;;;;;;5024417;28;19917;-67
2022/06/07 12:36:10;;;;;;;;;;;22.10;55.00;;;;;;5020820;28;19963;-71
2022/06/07 12:38:36;;;;;;;;;;;22.20;56.90;;;;;;5020933;28;19913;-70
2022/06/07 12:41:02;;;;;;;;;;;22.20;56.20;;;;;;5034670;28;19920;-70
2022/06/07 12:43:28;;;;;;;;;;;22.10;56.50;;;;;;5041879;28;19950;-69
2022/06/07 12:46:14;;;;;;;;;;;22.10;56.40;;;;;;5032921;28;20525;-70
2022/06/07 12:48:39;;;;;;;;;;;22.20;56.90;;;;;;5024139;28;19917;-67
2022/06/07 12:51:23;;;;;;;;;;;22.20;56.80;;;;;;5007509;28;19924;-70
2022/06/07 12:53:49;;;;;;;;;;;22.20;55.90;;;;;;5042546;28;19929;-70
2022/06/07 12:56:15;;;;;;;;;;;22.20;56.20;;;;;;5037761;28;20354;-70
2022/06/07 12:58:45;;;;;;;;;;;22.20;56.60;;;;;;5021446;28;19913;-66
2022/06/07 13:01:26;;;;;;;;;;;22.30;56.70;;;;;;5033596;28;19966;-69
2022/06/07 13:03:53;;;;;;;;;;;22.30;56.60;;;;;;5042674;28;19991;-69
2022/06/07 13:06:19;;;;;;;;;;;22.30;56.40;;;;;;5019245;28;19955;-68
2022/06/07 13:08:44;;;;;;;;;;;22.40;56.50;;;;;;5030941;28;20348;-70
2022/06/07 13:11:11;;;;;;;;;;;22.30;54.30;;;;;;5030396;28;19923;-70
2022/06/07 13:13:37;;;;;;;;;;;22.30;54.70;;;;;;5029941;28;19979;-70
2022/06/07 13:16:02;;;;;;;;;;;22.20;56.10;;;;;;5028558;28;19944;-68
2022/06/07 13:18:31;;;;;;;;;;;22.20;53.30;;;;;;5046259;28;19924;-70
2022/06/07 13:21:15;;;;;;;;;;;22.20;53.10;;;;;;5024603;28;19913;-69
2022/06/07 13:23:41;;;;;;;;;;;22.20;55.60;;;;;;5040825;28;19924;-67
2022/06/07 13:26:15;;;;;;;;;;;22.10;54.80;;;;;;5032541;28;19913;-70
2022/06/07 13:28:41;;;;;;;;;;;22.20;55.70;;;;;;5045120;28;19913;-69
2022/06/07 13:31:25;;;;;;;;;;;22.20;55.80;;;;;;5023820;28;19923;-70
2022/06/07 13:33:58;;;;;;;;;;;22.20;55.90;;;;;;5044306;28;19913;-70
2022/06/07 13:36:39;;;;;;;;;;;22.20;55.00;;;;;;5027300;28;19913;-70
2022/06/07 13:39:04;;;;;;;;;;;22.10;54.50;;;;;;5043632;28;19924;-69
2022/06/07 13:41:30;;;;;;;;;;;22.10;55.50;;;;;;5045256;28;20338;-68
2022/06/07 13:43:57;;;;;;;;;;;22.20;55.60;;;;;;5028079;28;19944;-70
2022/06/07 13:46:30;;;;;;;;;;;22.20;55.50;;;;;;5037749;28;20017;-70
2022/06/07 13:54:25;;;;;;;;;;;22.20;54.90;;;;;;5042697;28;19920;-70
2022/06/07 13:56:51;;;;;;;;;;;22.20;54.30;;;;;;5034390;28;19945;-69
2022/06/07 13:59:18;;;;;;;;;;;22.20;55.70;;;;;;5006497;28;20513;-69
2022/06/07 14:01:44;;;;;;;;;;;22.20;55.60;;;;;;5023790;28;19921;-69
2022/06/07 14:04:18;;;;;;;;;;;22.30;55.60;;;;;;5023024;28;19913;-69
2022/06/07 14:06:44;;;;;;;;;;;22.20;55.50;;;;;;5025990;28;19919;-69
2022/06/07 14:09:12;;;;;;;;;;;22.30;55.70;;;;;;5026535;28;19921;-70
2022/06/07 14:11:37;;;;;;;;;;;22.30;55.70;;;;;;5038369;28;19929;-67
2022/06/07 14:14:03;;;;;;;;;;;22.30;55.70;;;;;;5024685;28;19919;-70
2022/06/07 14:16:31;;;;;;;;;;;22.30;55.20;;;;;;5026468;28;19913;-70
2022/06/07 14:18:57;;;;;;;;;;;22.30;55.70;;;;;;5026680;28;19921;-71
2022/06/07 14:21:22;;;;;;;;;;;22.30;55.70;;;;;;5024190;28;20020;-70
2022/06/07 14:23:47;;;;;;;;;;;22.30;55.70;;;;;;5023021;28;19968;-70
2022/06/07 14:26:13;;;;;;;;;;;22.20;53.90;;;;;;5024928;28;20390;-70
2022/06/07 14:28:38;;;;;;;;;;;22.20;55.20;;;;;;5026489;28;19916;-70
2022/06/07 14:31:05;;;;;;;;;;;22.20;53.40;;;;;;5026546;28;19921;-70
2022/06/07 14:33:30;;;;;;;;;;;22.20;54.10;;;;;;5008493;28;19925;-70
2022/06/07 14:35:58;;;;;;;;;;;22.20;55.60;;;;;;5042750;28;22098;-70
2022/06/07 14:38:24;;;;;;;;;;;22.20;55.70;;;;;;5039582;28;20357;-70
2022/06/07 14:40:50;;;;;;;;;;;22.30;55.50;;;;;;5023084;28;19953;-70
2022/06/07 14:43:16;;;;;;;;;;;22.30;54.50;;;;;;5038988;28;19920;-70
2022/06/07 14:45:44;;;;;;;;;;;22.30;54.50;;;;;;5045022;28;19920;-69
2022/06/07 14:48:11;;;;;;;;;;;22.30;55.20;;;;;;5032525;28;20608;-69
2022/06/07 14:50:37;;;;;;;;;;;22.30;55.40;;;;;;5026002;28;19952;-70